Погода Масатанна неделю

Чьяпас, Мексика

26 февраля-03 марта
  • 26февраля
    Сегодня
    +22°
    +32°
    Ясно и безоблачно
    ВремяПогодаТемператураВлажностьДавлениеВетер, м/сВероятность осадков
    00:00Ясно и безоблачно+25°C85 %760 мм1.1 м/с2 %
    03:00Ясно и безоблачно+24°C82 %759 мм1.2 м/с2 %
    06:00Ясно и безоблачно+23°C83 %760 мм1.7 м/с2 %
    09:00Ясно и безоблачно+29°C57 %761 мм2.0 м/с2 %
    12:00Ясно и безоблачно+32°C41 %760 мм3.8 м/с2 %
    15:00Ясно и безоблачно+31°C48 %757 мм5.3 м/с2 %
    18:00Ясно и безоблачно+28°C58 %758 мм2.9 м/с2 %
    21:00Ясно и безоблачно+26°C70 %759 мм1.4 м/с2 %
  • 27февраля
    Вторник
    +22°
    +32°
    Ясно и безоблачно
    ВремяПогодаТемператураВлажностьДавлениеВетер, м/сВероятность осадков
    00:00Ясно и безоблачно+24°C70 %758 мм1.2 м/с2 %
    03:00Ясно и безоблачно+22°C71 %757 мм1.1 м/с2 %
    06:00Ясно и безоблачно+22°C65 %758 мм0.9 м/с2 %
    09:00Ясно и безоблачно+29°C50 %759 мм0.0 м/с2 %
    12:00Ясно и безоблачно+32°C42 %758 мм3.4 м/с2 %
    15:00Ясно и безоблачно+31°C46 %756 мм4.7 м/с2 %
    18:00Ясно и безоблачно+28°C63 %756 мм2.6 м/с2 %
    21:00Ясно и безоблачно+27°C79 %758 мм1.6 м/с2 %
  • 28февраля
    Среда
    +23°
    +32°
    Ясно и безоблачно
    ВремяПогодаТемператураВлажностьДавлениеВетер, м/сВероятность осадков
    00:00Ясно и безоблачно+25°C85 %758 мм1.0 м/с2 %
    03:00Ясно и безоблачно+24°C86 %756 мм1.0 м/с2 %
    06:00Ясно и безоблачно+23°C88 %757 мм0.6 м/с2 %
    09:00Ясно и безоблачно+29°C47 %759 мм0.9 м/с2 %
    12:00Ясно и безоблачно+32°C43 %758 мм3.8 м/с2 %
    15:00Ясно и безоблачно+31°C44 %756 мм4.9 м/с2 %
    18:00Ясно и безоблачно+29°C61 %757 мм3.0 м/с2 %
    21:00Ясно и безоблачно+27°C76 %758 мм1.8 м/с2 %
  • 29февраля
    Четверг
    +22°
    +33°
    Ясно и безоблачно
    ВремяПогодаТемператураВлажностьДавлениеВетер, м/сВероятность осадков
    00:00Ясно и безоблачно+26°C73 %759 мм1.3 м/с2 %
    03:00Ясно и безоблачно+25°C66 %758 мм1.8 м/с2 %
    06:00Ясно и безоблачно+24°C60 %758 мм1.8 м/с2 %
    09:00Ясно и безоблачно+29°C45 %759 мм2.1 м/с2 %
    12:00Ясно и безоблачно+32°C39 %758 мм4.1 м/с2 %
    15:00Ясно и безоблачно+31°C51 %756 мм5.1 м/с2 %
    18:00Ясно и безоблачно+29°C70 %757 мм2.2 м/с2 %
    21:00Ясно и безоблачно+27°C84 %759 мм0.7 м/с2 %
  • 01марта
    Пятница
    +24°
    +33°
    Ясно и безоблачно
    ВремяПогодаТемператураВлажностьДавлениеВетер, м/сВероятность осадков
    00:00Ясно и безоблачно+26°C87 %759 мм0.3 м/с2 %
    03:00Ясно и безоблачно+24°C90 %757 мм1.2 м/с2 %
    06:00Ясно и безоблачно+23°C84 %758 мм1.0 м/с2 %
    09:00Ясно и безоблачно+30°C49 %759 мм0.9 м/с2 %
    12:00Практически безоблачно+32°C47 %759 мм4.3 м/с2 %
    15:00Ясно и безоблачно+31°C55 %757 мм4.8 м/с2 %
    18:00Практически безоблачно+29°C66 %757 мм1.9 м/с2 %
    21:00Ясно и безоблачно+28°C80 %759 мм0.4 м/с2 %
Мы используем cookies
Соглашаюсь